Time;durP1;ratioP1;P1;durP2;ratioP2;P2;SDS_P1;SDS_P2;PMS_P1;PMS_P2;Temp;Humidity;BMP_temperature;BMP_pressure;BME280_temperature;BME280_humidity;BME280_pressure;Samples;Min_cycle;Max_cycle;Signal;HPM_P1;HPM_P2
2023/06/27 03:59:26;;;;;;;12.33;7.53;;;;;;;17.22;100.00;99908.69;5569332;32;195881;-85
2023/06/27 04:02:30;;;;;;;14.30;7.80;;;;;;;17.41;100.00;99907.09;5549073;32;33786;-85
2023/06/27 04:05:33;;;;;;;12.73;9.45;;;;;;;17.67;100.00;99913.84;5545205;32;33699;-85
2023/06/27 04:08:35;;;;;;;15.18;8.95;;;;;;;17.95;100.00;99922.19;5544327;32;33725;-89
2023/06/27 04:11:38;;;;;;;13.88;10.20;;;;;;;18.10;100.00;99911.94;5544027;32;33689;-91
2023/06/27 04:14:41;;;;;;;15.55;11.27;;;;;;;18.31;100.00;99912.69;5543713;32;33879;-90
2023/06/27 04:17:45;;;;;;;13.65;9.32;;;;;;;18.44;100.00;99919.63;5543523;32;33859;-90
2023/06/27 04:20:48;;;;;;;12.93;9.57;;;;;;;18.54;100.00;99933.06;5533553;32;32569;-86
2023/06/27 04:23:53;;;;;;;15.65;9.80;;;;;;;18.61;100.00;99942.31;5524339;32;33341;-86
2023/06/27 04:26:56;;;;;;;18.92;10.13;;;;;;;18.59;100.00;99945.13;5524116;32;33736;-85
2023/06/27 04:30:01;;;;;;;14.77;10.10;;;;;;;18.64;100.00;99954.56;5524560;32;33969;-85
2023/06/27 04:33:04;;;;;;;14.98;9.30;;;;;;;18.74;100.00;99952.75;5527330;32;33717;-84
2023/06/27 04:36:07;;;;;;;14.23;10.18;;;;;;;19.05;100.00;99958.03;5528579;32;33611;-84
2023/06/27 04:39:10;;;;;;;15.68;10.77;;;;;;;19.20;100.00;99962.97;5528244;32;33182;-84
2023/06/27 04:42:14;;;;;;;20.60;12.37;;;;;;;19.43;100.00;99962.66;5528647;32;34022;-85
2023/06/27 04:45:16;;;;;;;17.08;11.93;;;;;;;19.22;100.00;99952.94;5529228;32;34399;-85
2023/06/27 04:48:19;;;;;;;18.33;12.48;;;;;;;19.25;100.00;99952.63;5527944;32;33485;-85
2023/06/27 04:51:21;;;;;;;20.98;12.77;;;;;;;19.22;100.00;99920.69;5527551;32;34195;-85
2023/06/27 04:54:24;;;;;;;21.08;13.00;;;;;;;19.19;100.00;99915.56;5528684;32;33465;-84
2023/06/27 04:57:27;;;;;;;20.67;13.38;;;;;;;18.97;100.00;99907.63;5529826;32;33914;-85
2023/06/27 05:00:30;;;;;;;23.08;13.73;;;;;;;18.50;100.00;99900.28;5529242;32;33731;-85
2023/06/27 05:03:32;;;;;;;23.95;13.27;;;;;;;18.08;100.00;99938.06;5529662;32;33847;-85
2023/06/27 05:06:35;;;;;;;23.58;14.52;;;;;;;18.23;100.00;99950.13;5528888;32;33894;-85
2023/06/27 05:09:38;;;;;;;19.48;13.23;;;;;;;18.20;100.00;99946.88;5521819;32;34036;-85
2023/06/27 05:12:41;;;;;;;23.15;13.43;;;;;;;18.13;100.00;99939.34;5516619;32;33931;-85
2023/06/27 05:15:43;;;;;;;18.98;13.13;;;;;;;18.18;100.00;99933.56;5516005;32;34002;-85
2023/06/27 05:18:47;;;;;;;22.87;13.62;;;;;;;18.26;100.00;99932.91;5513767;32;34291;-85
2023/06/27 05:21:50;;;;;;;22.92;14.20;;;;;;;18.40;100.00;99939.72;5514193;32;35238;-85
2023/06/27 05:24:53;;;;;;;19.98;13.75;;;;;;;18.66;100.00;99941.88;5513941;32;32132;-85
2023/06/27 05:27:56;;;;;;;24.58;14.45;;;;;;;18.83;100.00;99949.25;5514121;32;33695;-85
2023/06/27 05:30:59;;;;;;;25.37;13.20;;;;;;;18.94;100.00;99947.37;5514183;32;33584;-85
2023/06/27 05:34:01;;;;;;;21.02;13.68;;;;;;;19.18;100.00;99952.38;5513925;32;34483;-85
2023/06/27 05:37:04;;;;;;;23.00;14.50;;;;;;;19.47;100.00;99950.63;5515021;32;34551;-84
2023/06/27 05:40:08;;;;;;;22.60;12.95;;;;;;;19.91;100.00;99952.75;5513614;32;34217;-85
2023/06/27 05:43:11;;;;;;;21.15;13.00;;;;;;;21.13;100.00;99952.63;5514104;32;33831;-85
2023/06/27 05:46:14;;;;;;;30.62;13.10;;;;;;;21.38;100.00;99959.03;5514052;32;33843;-85
2023/06/27 05:49:17;;;;;;;23.15;14.07;;;;;;;21.38;100.00;99950.09;5514096;32;34504;-84
2023/06/27 05:52:19;;;;;;;18.08;13.23;;;;;;;21.31;100.00;99957.97;5513826;32;34556;-84
2023/06/27 05:55:24;;;;;;;19.42;12.25;;;;;;;21.13;100.00;99966.94;5513237;32;34397;-85
2023/06/27 05:58:27;;;;;;;18.73;12.23;;;;;;;21.35;100.00;99962.06;5512144;32;33802;-84
2023/06/27 06:01:29;;;;;;;12.73;9.32;;;;;;;22.76;100.00;99972.72;5515586;32;33880;-83
2023/06/27 06:04:32;;;;;;;12.10;8.55;;;;;;;24.68;100.00;99978.66;5538632;32;34587;-83
2023/06/27 06:07:35;;;;;;;11.25;8.15;;;;;;;26.18;92.35;99984.44;5519321;32;34018;-83
2023/06/27 06:10:38;;;;;;;9.52;7.62;;;;;;;27.63;80.67;99974.69;5512756;32;33555;-83
2023/06/27 06:13:41;;;;;;;10.05;7.53;;;;;;;27.63;77.10;99969.22;5516506;32;34995;-85
2023/06/27 06:16:44;;;;;;;11.55;7.70;;;;;;;26.73;78.03;99967.75;5519882;32;33888;-85
2023/06/27 06:19:46;;;;;;;9.77;7.07;;;;;;;27.80;75.82;99972.47;5513349;32;34456;-85
2023/06/27 06:22:49;;;;;;;8.40;7.28;;;;;;;28.09;74.50;99966.97;5511157;32;33884;-84
2023/06/27 06:25:52;;;;;;;8.30;7.22;;;;;;;27.56;72.16;99962.87;5517505;32;33501;-84
2023/06/27 06:28:55;;;;;;;9.98;7.32;;;;;;;26.51;77.72;99959.56;5515339;32;33913;-84
2023/06/27 06:31:57;;;;;;;9.32;7.22;;;;;;;25.97;80.16;99966.19;5518965;32;33797;-83
2023/06/27 06:35:00;;;;;;;10.13;7.65;;;;;;;25.36;81.83;99964.41;5514116;32;33946;-84
2023/06/27 06:38:03;;;;;;;11.12;7.97;;;;;;;23.83;98.18;99962.87;5513262;32;35084;-87
2023/06/27 06:41:06;;;;;;;8.70;7.80;;;;;;;23.17;96.71;99973.78;5509879;32;34456;-84
2023/06/27 06:44:08;;;;;;;9.60;7.93;;;;;;;23.00;100.00;99973.75;5516806;32;33948;-83
2023/06/27 06:47:11;;;;;;;12.95;8.35;;;;;;;22.85;100.00;99976.28;5514441;32;33736;-83
2023/06/27 06:50:14;;;;;;;11.48;8.15;;;;;;;23.18;100.00;99986.28;5510264;32;34791;-83
2023/06/27 06:53:20;;;;;;;10.30;8.65;;;;;;;22.36;100.00;99994.03;5519760;32;33564;-84
2023/06/27 06:56:22;;;;;;;10.98;8.55;;;;;;;22.00;100.00;99997.75;5531868;32;34322;-82
2023/06/27 06:59:25;;;;;;;10.10;8.75;;;;;;;21.84;100.00;100003.06;5523438;32;34112;-82
2023/06/27 07:02:27;;;;;;;10.70;8.95;;;;;;;21.93;100.00;100012.91;5513760;32;33755;-81
2023/06/27 07:05:30;;;;;;;19.75;8.95;;;;;;;21.76;100.00;100009.25;5514434;32;33773;-81
2023/06/27 07:08:34;;;;;;;12.52;9.30;;;;;;;21.73;100.00;99996.06;5513192;32;34478;-81
2023/06/27 07:11:37;;;;;;;15.45;10.13;;;;;;;21.25;100.00;99999.91;5510973;32;33484;-81
2023/06/27 07:14:39;;;;;;;11.98;9.48;;;;;;;21.31;100.00;100021.88;5517216;32;33532;-82
2023/06/27 07:17:42;;;;;;;18.60;9.70;;;;;;;21.61;100.00;100034.09;5522410;32;33685;-82
2023/06/27 07:20:45;;;;;;;12.93;9.20;;;;;;;21.41;100.00;100042.38;5511432;32;33689;-82
2023/06/27 07:23:48;;;;;;;10.75;8.90;;;;;;;20.97;100.00;100037.72;5525287;32;33594;-81
2023/06/27 07:26:51;;;;;;;12.35;9.98;;;;;;;21.22;100.00;100035.28;5523149;32;33731;-81
2023/06/27 07:29:54;;;;;;;27.87;11.40;;;;;;;21.13;100.00;100034.34;5516123;32;34037;-81
2023/06/27 07:32:57;;;;;;;12.70;10.48;;;;;;;21.22;100.00;100037.97;5519387;32;33341;-82
2023/06/27 07:36:00;;;;;;;13.93;9.55;;;;;;;21.45;100.00;100034.81;5514418;32;33724;-82
2023/06/27 07:39:03;;;;;;;12.75;10.65;;;;;;;21.69;100.00;100038.69;5519837;32;32485;-83
2023/06/27 07:42:08;;;;;;;12.90;9.70;;;;;;;21.66;100.00;100039.00;5515008;32;34357;-83
2023/06/27 07:45:11;;;;;;;13.77;9.90;;;;;;;22.45;100.00;100035.44;5510851;32;33913;-84
2023/06/27 07:48:13;;;;;;;13.25;10.23;;;;;;;22.88;100.00;100033.56;5512365;32;34425;-83
2023/06/27 07:51:16;;;;;;;13.68;10.70;;;;;;;23.42;100.00;100031.47;5518717;32;33563;-84
2023/06/27 07:54:19;;;;;;;13.02;11.15;;;;;;;23.29;100.00;100031.97;5514161;32;33912;-85
2023/06/27 07:57:25;;;;;;;12.20;9.77;;;;;;;22.30;100.00;100030.66;5525359;32;33907;-84
2023/06/27 08:00:27;;;;;;;14.68;9.82;;;;;;;22.90;100.00;100030.72;5516292;32;33935;-84
2023/06/27 08:03:30;;;;;;;12.82;10.32;;;;;;;23.34;100.00;100031.47;5514921;32;33999;-84
2023/06/27 08:06:36;;;;;;;10.52;9.43;;;;;;;23.11;100.00;100032.94;5530711;32;34143;-84
2023/06/27 08:09:39;;;;;;;12.13;9.82;;;;;;;23.32;100.00;100033.50;5528980;32;34465;-84
2023/06/27 08:12:42;;;;;;;13.15;10.23;;;;;;;23.47;100.00;100041.81;5515505;32;33095;-84
2023/06/27 08:15:45;;;;;;;11.35;9.38;;;;;;;23.15;100.00;100039.69;5517299;32;33525;-84
2023/06/27 08:18:48;;;;;;;12.88;10.27;;;;;;;23.00;100.00;100044.09;5514610;32;33568;-85
2023/06/27 08:21:50;;;;;;;11.82;10.02;;;;;;;22.87;100.00;100040.00;5514888;32;33773;-84
2023/06/27 08:24:53;;;;;;;12.80;10.52;;;;;;;22.73;100.00;100048.75;5527606;32;33684;-83
2023/06/27 08:27:56;;;;;;;12.55;10.10;;;;;;;22.64;100.00;100049.72;5519225;32;33720;-84
2023/06/27 08:30:58;;;;;;;16.75;10.68;;;;;;;22.80;100.00;100047.09;5517004;32;34179;-84
2023/06/27 08:34:01;;;;;;;14.05;9.63;;;;;;;22.84;100.00;100061.13;5514591;32;33863;-85
2023/06/27 08:37:05;;;;;;;11.45;9.77;;;;;;;22.59;100.00;100031.31;5515984;32;33871;-84
2023/06/27 08:40:09;;;;;;;13.25;10.15;;;;;;;22.68;100.00;100041.13;5515579;32;34149;-85
2023/06/27 08:43:12;;;;;;;11.98;10.60;;;;;;;22.84;100.00;100045.72;5516907;32;34140;-84
2023/06/27 08:46:19;;;;;;;12.45;10.35;;;;;;;22.53;100.00;100043.59;5518108;32;33968;-84
2023/06/27 08:49:26;;;;;;;11.20;9.98;;;;;;;22.66;100.00;100043.16;5518660;32;33954;-84
2023/06/27 08:52:36;;;;;;;13.05;10.80;;;;;;;22.44;100.00;100055.38;5531293;32;33762;-84
2023/06/27 08:56:17;;;;;;;12.82;10.80;;;;;;;22.53;100.00;100053.59;5535672;32;33685;-89
2023/06/27 08:59:24;;;;;;;13.02;11.20;;;;;;;22.40;100.00;100054.00;5520680;32;34310;-85
2023/06/27 09:02:27;;;;;;;12.30;10.80;;;;;;;22.08;100.00;100040.16;5517467;32;33783;-84
2023/06/27 09:05:33;;;;;;;16.27;11.50;;;;;;;22.11;100.00;100039.00;5517762;32;34045;-85
2023/06/27 09:08:36;;;;;;;13.98;10.70;;;;;;;22.13;100.00;100037.81;5517864;32;33875;-84
2023/06/27 09:11:39;;;;;;;12.05;10.82;;;;;;;22.27;100.00;100047.19;5518634;32;34232;-85
2023/06/27 09:14:42;;;;;;;18.60;11.05;;;;;;;22.13;100.00;100045.09;5518828;32;34184;-85
2023/06/27 09:17:46;;;;;;;15.25;11.05;;;;;;;22.26;100.00;100063.53;5518171;32;33629;-85
2023/06/27 09:20:48;;;;;;;12.70;11.15;;;;;;;22.16;100.00;100050.16;5519217;32;33664;-85
2023/06/27 09:23:52;;;;;;;14.60;11.40;;;;;;;22.38;100.00;100064.94;5520417;32;33469;-85
2023/06/27 09:26:55;;;;;;;11.65;10.45;;;;;;;22.43;100.00;100059.09;5522877;32;33573;-84
2023/06/27 09:30:02;;;;;;;14.65;11.05;;;;;;;22.60;100.00;100063.59;5520260;32;33860;-86
2023/06/27 09:33:05;;;;;;;16.87;11.23;;;;;;;22.98;100.00;100057.75;5518865;32;33747;-84
2023/06/27 09:36:08;;;;;;;13.10;10.75;;;;;;;22.97;100.00;100071.44;5519919;32;34253;-84
2023/06/27 09:39:15;;;;;;;14.10;11.05;;;;;;;23.06;100.00;100072.31;5514561;32;34243;-85
2023/06/27 09:42:18;;;;;;;13.20;11.20;;;;;;;23.28;100.00;100076.28;5511443;32;33520;-85
2023/06/27 09:45:23;;;;;;;14.90;10.93;;;;;;;22.94;100.00;100069.94;5529611;32;34310;-85
2023/06/27 09:48:28;;;;;;;15.50;10.55;;;;;;;23.35;100.00;100071.91;5532257;32;33815;-84
2023/06/27 09:51:32;;;;;;;14.80;10.77;;;;;;;23.59;100.00;100083.75;5528524;32;34771;-84
2023/06/27 09:54:42;;;;;;;13.62;9.63;;;;;;;23.87;100.00;100087.94;5533744;32;34392;-84
2023/06/27 09:57:45;;;;;;;12.18;9.40;;;;;;;24.45;98.15;100083.28;5535226;32;33906;-83
2023/06/27 10:00:48;;;;;;;12.45;9.48;;;;;;;25.01;93.56;100082.41;5536389;32;34720;-84
2023/06/27 10:03:51;;;;;;;10.05;9.05;;;;;;;24.66;93.41;100079.16;5534274;32;34619;-83
2023/06/27 10:06:54;;;;;;;12.07;9.38;;;;;;;24.89;92.94;100081.94;5531937;32;34116;-83
2023/06/27 10:09:57;;;;;;;9.30;8.27;;;;;;;24.96;91.70;100079.38;5517421;32;34428;-83
2023/06/27 10:13:00;;;;;;;11.05;7.72;;;;;;;25.42;86.71;100083.12;5516188;32;33996;-84
2023/06/27 10:16:03;;;;;;;13.70;8.32;;;;;;;25.65;84.98;100079.59;5522266;32;33837;-84
2023/06/27 10:19:05;;;;;;;14.15;8.38;;;;;;;25.28;87.61;100080.19;5523707;32;33663;-84
2023/06/27 10:22:11;;;;;;;13.20;8.95;;;;;;;25.89;85.80;100081.22;5527245;32;32558;-86
2023/06/27 10:25:16;;;;;;;9.27;8.18;;;;;;;25.88;85.30;100086.84;5521968;32;34727;-89
2023/06/27 10:28:19;;;;;;;10.45;8.10;;;;;;;25.01;86.55;100095.09;5525623;32;34025;-89
2023/06/27 10:31:45;;;;;;;11.98;8.05;;;;;;;24.96;87.51;100084.81;5516568;32;33983;-91
2023/06/27 10:34:50;;;;;;;8.75;7.87;;;;;;;24.97;87.33;100089.19;5518812;32;33944;-85
2023/06/27 10:38:08;;;;;;;9.15;7.00;;;;;;;24.69;89.16;100088.81;5527444;32;34343;-85
2023/06/27 10:41:33;;;;;;;9.32;7.20;;;;;;;24.51;85.36;100092.59;5519583;32;33775;-85
2023/06/27 10:44:59;;;;;;;7.75;6.97;;;;;;;24.72;81.88;100096.56;5524536;32;34371;-85
2023/06/27 10:48:02;;;;;;;10.43;7.00;;;;;;;24.17;84.27;100101.81;5523259;32;34465;-85
2023/06/27 10:51:08;;;;;;;7.25;6.12;;;;;;;24.23;85.25;100101.13;5525737;32;33829;-85
2023/06/27 10:54:12;;;;;;;7.60;6.22;;;;;;;24.48;85.36;100109.19;5524100;32;34891;-83
2023/06/27 10:57:18;;;;;;;8.40;6.40;;;;;;;24.43;84.67;100108.91;5524393;32;34042;-84
2023/06/27 11:00:29;;;;;;;7.93;6.68;;;;;;;24.00;85.52;100103.69;5523472;32;34044;-83
2023/06/27 11:03:33;;;;;;;8.98;6.30;;;;;;;23.81;84.08;100113.88;5533179;32;34214;-83
2023/06/27 11:06:41;;;;;;;6.53;5.82;;;;;;;23.53;85.71;100117.75;5526419;32;34299;-83
2023/06/27 11:09:55;;;;;;;9.98;6.50;;;;;;;23.40;87.19;100120.97;5522794;32;34540;-83
2023/06/27 11:13:23;;;;;;;9.07;6.03;;;;;;;23.53;86.68;100115.03;5529661;32;33760;-83
2023/06/27 11:16:26;;;;;;;7.62;6.30;;;;;;;23.65;86.83;100120.12;5516099;32;33615;-83
2023/06/27 11:19:33;;;;;;;8.40;6.00;;;;;;;23.26;91.32;100140.50;5515447;32;34074;-84
2023/06/27 11:22:37;;;;;;;6.03;5.43;;;;;;;23.21;92.50;100145.56;5513918;32;33806;-84
2023/06/27 11:25:45;;;;;;;6.22;5.62;;;;;;;23.00;89.36;100157.69;5519825;32;34781;-84
2023/06/27 11:28:47;;;;;;;9.57;6.60;;;;;;;22.68;93.25;100167.34;5527838;32;34464;-84
2023/06/27 11:31:51;;;;;;;13.62;6.25;;;;;;;22.53;93.16;100167.09;5521521;32;33758;-84
2023/06/27 11:34:54;;;;;;;8.68;6.10;;;;;;;22.55;91.88;100173.19;5534187;32;34226;-83
2023/06/27 11:37:57;;;;;;;6.50;5.85;;;;;;;22.60;94.44;100174.41;5534507;32;34448;-84
2023/06/27 11:41:02;;;;;;;7.82;5.80;;;;;;;22.71;93.60;100167.88;5533909;32;33649;-83
2023/06/27 11:44:09;;;;;;;10.02;6.00;;;;;;;22.65;92.15;100178.47;5534416;32;34522;-83
2023/06/27 11:47:11;;;;;;;10.93;7.20;;;;;;;22.85;90.79;100168.25;5531888;32;33912;-83
2023/06/27 11:50:15;;;;;;;11.25;5.97;;;;;;;22.91;91.46;100172.16;5519309;32;33763;-84
2023/06/27 11:53:19;;;;;;;8.30;6.62;;;;;;;23.20;89.94;100160.97;5534027;32;33924;-84
2023/06/27 11:56:23;;;;;;;9.25;7.00;;;;;;;22.95;88.48;100174.41;5523937;32;34094;-84
2023/06/27 11:59:32;;;;;;;7.93;6.30;;;;;;;23.10;90.87;100180.03;5514882;32;33524;-84
2023/06/27 12:02:35;;;;;;;8.57;6.82;;;;;;;22.69;93.07;100186.13;5534970;32;33627;-84
2023/06/27 12:05:44;;;;;;;9.70;7.40;;;;;;;22.28;99.76;100178.53;5534849;32;33891;-84
2023/06/27 12:08:47;;;;;;;11.48;7.15;;;;;;;22.43;99.66;100176.13;5532107;32;34069;-85
2023/06/27 12:11:58;;;;;;;11.77;7.07;;;;;;;22.29;100.00;100174.88;5521244;32;35441;-84
2023/06/27 12:15:14;;;;;;;8.07;7.05;;;;;;;22.37;100.00;100173.22;5515283;32;34086;-84
2023/06/27 12:18:27;;;;;;;8.20;7.30;;;;;;;22.14;100.00;100165.63;5523125;32;34021;-85
2023/06/27 12:21:30;;;;;;;9.88;7.95;;;;;;;22.03;100.00;100172.97;5514046;32;33888;-86
2023/06/27 12:24:33;;;;;;;9.32;8.15;;;;;;;21.75;100.00;100170.38;5512241;32;33818;-85
2023/06/27 12:27:35;;;;;;;10.75;7.95;;;;;;;21.85;100.00;100161.31;5514242;32;33704;-86
2023/06/27 12:30:39;;;;;;;9.23;8.23;;;;;;;21.88;100.00;100150.22;5524089;32;33792;-85
2023/06/27 12:33:41;;;;;;;9.63;8.25;;;;;;;21.87;100.00;100140.44;5529832;32;33948;-85
2023/06/27 12:36:45;;;;;;;13.65;8.10;;;;;;;21.60;100.00;100148.44;5518964;32;34184;-86
2023/06/27 12:39:47;;;;;;;9.38;8.05;;;;;;;21.33;100.00;100154.75;5519343;32;33744;-88
2023/06/27 12:42:51;;;;;;;8.75;7.85;;;;;;;21.58;100.00;100131.56;5519490;32;34729;-88
2023/06/27 12:46:04;;;;;;;9.20;7.90;;;;;;;21.43;100.00;100144.75;5516333;32;34809;-89
2023/06/27 12:49:07;;;;;;;11.40;8.73;;;;;;;21.52;100.00;100160.00;5513404;32;34835;-85
2023/06/27 12:52:10;;;;;;;9.40;8.35;;;;;;;21.50;100.00;100161.16;5511616;32;34331;-86
2023/06/27 12:55:16;;;;;;;9.50;8.50;;;;;;;21.36;100.00;100171.47;5528143;32;34206;-85
2023/06/27 12:58:18;;;;;;;9.48;7.93;;;;;;;21.55;100.00;100172.34;5533008;32;34061;-85
2023/06/27 13:01:24;;;;;;;11.05;8.50;;;;;;;21.30;100.00;100164.00;5534766;32;34117;-85
2023/06/27 13:04:31;;;;;;;11.25;8.35;;;;;;;21.47;100.00;100140.72;5529563;32;34206;-85
2023/06/27 13:07:34;;;;;;;10.23;8.60;;;;;;;21.46;100.00;100113.91;5514680;32;33503;-85
2023/06/27 13:10:37;;;;;;;11.40;7.87;;;;;;;21.48;100.00;100112.72;5514178;32;34092;-85
2023/06/27 13:13:40;;;;;;;11.48;8.50;;;;;;;21.40;100.00;100109.97;5514077;32;34793;-85
2023/06/27 13:16:43;;;;;;;11.30;8.38;;;;;;;21.54;100.00;100111.28;5515163;32;33946;-85
2023/06/27 13:19:46;;;;;;;8.25;7.45;;;;;;;21.58;100.00;100112.66;5514762;32;34076;-85
2023/06/27 13:22:51;;;;;;;11.43;7.97;;;;;;;21.63;100.00;100120.28;5515067;32;34340;-85
2023/06/27 13:25:54;;;;;;;11.73;8.15;;;;;;;21.47;100.00;100140.72;5514794;32;33569;-85
2023/06/27 13:28:57;;;;;;;9.82;7.87;;;;;;;21.54;100.00;100165.25;5515336;32;33682;-85
2023/06/27 13:32:00;;;;;;;8.82;7.75;;;;;;;21.51;100.00;100168.25;5514011;32;33728;-84
2023/06/27 13:35:03;;;;;;;10.40;7.68;;;;;;;21.40;100.00;100162.09;5514267;32;33601;-84
2023/06/27 13:38:07;;;;;;;8.82;7.30;;;;;;;21.54;100.00;100143.66;5514630;32;33778;-85
2023/06/27 13:41:09;;;;;;;8.23;7.30;;;;;;;21.81;98.71;100150.84;5522317;32;33649;-84
2023/06/27 13:44:12;;;;;;;9.65;7.10;;;;;;;21.85;99.89;100137.03;5527695;32;33432;-85
2023/06/27 13:47:15;;;;;;;8.73;7.57;;;;;;;22.20;95.46;100133.44;5532824;32;34100;-85
2023/06/27 13:50:18;;;;;;;9.85;7.12;;;;;;;22.11;97.56;100130.84;5523732;32;34026;-84
2023/06/27 13:53:22;;;;;;;9.52;7.15;;;;;;;21.99;97.41;100120.28;5514341;32;33733;-84
2023/06/27 13:56:25;;;;;;;7.37;6.30;;;;;;;21.95;96.59;100113.50;5517439;32;34104;-85
2023/06/27 13:59:27;;;;;;;12.05;6.70;;;;;;;21.72;93.33;100107.75;5521326;32;34748;-85
2023/06/27 14:02:44;;;;;;;13.23;6.00;;;;;;;21.61;92.88;100104.25;5516086;32;33743;-85
2023/06/27 14:06:02;;;;;;;12.23;5.87;;;;;;;21.77;87.32;100108.97;5551256;32;34207;-84
2023/06/27 14:09:08;;;;;;;10.63;5.90;;;;;;;21.32;88.67;100121.50;5565678;32;34198;-85
2023/06/27 14:12:10;;;;;;;8.90;5.28;;;;;;;21.22;86.05;100126.97;5574778;32;33610;-85
2023/06/27 14:15:13;;;;;;;9.55;5.55;;;;;;;21.25;80.09;100129.38;5574659;32;34399;-85
2023/06/27 14:18:16;;;;;;;8.55;5.75;;;;;;;21.15;82.43;100139.38;5574963;32;34836;-85
2023/06/27 14:21:21;;;;;;;8.00;5.03;;;;;;;21.02;81.93;100141.59;5574102;32;33676;-84
2023/06/27 14:24:24;;;;;;;6.93;5.47;;;;;;;20.96;82.07;100154.66;5574832;32;34695;-89
2023/06/27 14:27:27;;;;;;;8.55;5.22;;;;;;;21.09;81.95;100157.03;5574295;32;33946;-89
2023/06/27 14:30:29;;;;;;;6.57;5.43;;;;;;;21.07;82.03;100155.47;5581408;32;33991;-89
2023/06/27 14:33:32;;;;;;;6.32;5.35;;;;;;;21.03;81.95;100154.94;5584490;32;34867;-88
2023/06/27 14:36:35;;;;;;;8.60;5.75;;;;;;;20.98;82.07;100155.34;5577021;32;34404;-85
2023/06/27 14:39:38;;;;;;;6.53;5.72;;;;;;;21.05;83.44;100162.84;5572551;32;33820;-84
2023/06/27 14:42:40;;;;;;;7.97;5.45;;;;;;;20.85;83.68;100169.19;5570567;32;34826;-85
2023/06/27 14:45:43;;;;;;;8.18;5.65;;;;;;;20.87;84.28;100166.37;5571838;32;34050;-84
2023/06/27 14:48:46;;;;;;;6.70;5.30;;;;;;;20.66;87.44;100161.16;5571934;32;33845;-84
2023/06/27 14:51:49;;;;;;;7.12;5.00;;;;;;;20.71;86.52;100157.03;5571692;32;33598;-84
2023/06/27 14:54:51;;;;;;;6.37;5.75;;;;;;;20.64;86.27;100153.22;5571404;32;33446;-84
2023/06/27 14:57:55;;;;;;;7.12;5.35;;;;;;;20.62;86.81;100146.28;5573498;32;33873;-84
2023/06/27 15:00:57;;;;;;;6.57;5.28;;;;;;;20.50;86.57;100142.91;5571503;32;34017;-84
2023/06/27 15:04:00;;;;;;;7.93;5.60;;;;;;;20.57;87.34;100142.19;5571200;32;34663;-84
2023/06/27 15:07:03;;;;;;;7.10;5.78;;;;;;;20.62;87.99;100140.91;5571118;32;33681;-84
2023/06/27 15:10:07;;;;;;;11.75;6.00;;;;;;;20.72;87.46;100133.62;5571547;32;34089;-84
2023/06/27 15:13:10;;;;;;;7.55;5.45;;;;;;;20.69;87.32;100136.59;5571374;32;33679;-84
2023/06/27 15:16:14;;;;;;;8.45;5.72;;;;;;;20.73;87.41;100125.37;5571528;32;34030;-84
2023/06/27 15:19:17;;;;;;;6.35;5.37;;;;;;;20.76;86.60;100136.88;5571495;32;34048;-84
2023/06/27 15:22:24;;;;;;;10.50;5.72;;;;;;;20.76;87.39;100134.19;5571923;32;34068;-84
2023/06/27 15:25:26;;;;;;;8.00;5.22;;;;;;;20.95;85.06;100122.47;5571370;32;33703;-84
